sensor_id;sensor_type;location;lat;lon;timestamp;P1;durP1;ratioP1;P2;durP2;ratioP2
76393;SDS011;65216;51.090;-115.352;2023-04-06T00:00:17;13.00;;;1.50;;
76393;SDS011;65216;51.090;-115.352;2023-04-06T00:02:47;16.80;;;1.80;;
76393;SDS011;65216;51.090;-115.352;2023-04-06T00:05:14;21.30;;;2.10;;
76393;SDS011;65216;51.090;-115.352;2023-04-06T00:07:41;14.90;;;2.10;;
76393;SDS011;65216;51.090;-115.352;2023-04-06T00:10:08;18.90;;;1.70;;
76393;SDS011;65216;51.090;-115.352;2023-04-06T00:12:36;18.10;;;2.70;;
76393;SDS011;65216;51.090;-115.352;2023-04-06T00:15:06;16.20;;;1.90;;
76393;SDS011;65216;51.090;-115.352;2023-04-06T00:17:36;17.30;;;2.00;;
76393;SDS011;65216;51.090;-115.352;2023-04-06T00:20:07;24.40;;;2.30;;
76393;SDS011;65216;51.090;-115.352;2023-04-06T00:22:37;19.20;;;1.70;;
76393;SDS011;65216;51.090;-115.352;2023-04-06T00:25:05;20.20;;;2.10;;
76393;SDS011;65216;51.090;-115.352;2023-04-06T00:27:32;19.50;;;2.00;;
76393;SDS011;65216;51.090;-115.352;2023-04-06T00:29:59;19.70;;;2.10;;
76393;SDS011;65216;51.090;-115.352;2023-04-06T00:32:29;22.30;;;2.40;;
76393;SDS011;65216;51.090;-115.352;2023-04-06T00:34:56;20.60;;;1.90;;
76393;SDS011;65216;51.090;-115.352;2023-04-06T00:37:24;18.30;;;2.20;;
76393;SDS011;65216;51.090;-115.352;2023-04-06T00:39:51;23.70;;;2.20;;
76393;SDS011;65216;51.090;-115.352;2023-04-06T00:42:22;20.90;;;2.10;;
76393;SDS011;65216;51.090;-115.352;2023-04-06T00:45:01;18.70;;;2.50;;
76393;SDS011;65216;51.090;-115.352;2023-04-06T00:47:28;18.90;;;1.90;;
76393;SDS011;65216;51.090;-115.352;2023-04-06T00:49:58;16.20;;;2.10;;
76393;SDS011;65216;51.090;-115.352;2023-04-06T00:52:28;22.00;;;2.00;;
76393;SDS011;65216;51.090;-115.352;2023-04-06T00:54:59;18.70;;;2.20;;
76393;SDS011;65216;51.090;-115.352;2023-04-06T00:57:26;23.20;;;1.90;;
76393;SDS011;65216;51.090;-115.352;2023-04-06T00:59:53;15.70;;;2.00;;
76393;SDS011;65216;51.090;-115.352;2023-04-06T01:02:20;20.60;;;2.30;;
76393;SDS011;65216;51.090;-115.352;2023-04-06T01:04:48;19.50;;;2.00;;
76393;SDS011;65216;51.090;-115.352;2023-04-06T01:07:15;27.00;;;2.60;;
76393;SDS011;65216;51.090;-115.352;2023-04-06T01:09:44;20.70;;;2.30;;
76393;SDS011;65216;51.090;-115.352;2023-04-06T01:12:11;18.50;;;2.30;;
76393;SDS011;65216;51.090;-115.352;2023-04-06T01:14:41;19.30;;;1.90;;
76393;SDS011;65216;51.090;-115.352;2023-04-06T01:17:08;20.10;;;2.30;;
76393;SDS011;65216;51.090;-115.352;2023-04-06T01:19:36;18.40;;;2.40;;
76393;SDS011;65216;51.090;-115.352;2023-04-06T01:22:06;19.40;;;2.30;;
76393;SDS011;65216;51.090;-115.352;2023-04-06T01:24:34;17.50;;;2.10;;
76393;SDS011;65216;51.090;-115.352;2023-04-06T01:27:04;13.10;;;1.90;;
76393;SDS011;65216;51.090;-115.352;2023-04-06T01:29:31;24.20;;;2.00;;
76393;SDS011;65216;51.090;-115.352;2023-04-06T01:32:01;16.20;;;1.90;;
76393;SDS011;65216;51.090;-115.352;2023-04-06T01:34:28;13.40;;;1.80;;
76393;SDS011;65216;51.090;-115.352;2023-04-06T01:36:55;16.80;;;1.80;;
76393;SDS011;65216;51.090;-115.352;2023-04-06T01:39:22;16.20;;;1.80;;
76393;SDS011;65216;51.090;-115.352;2023-04-06T01:41:49;19.10;;;1.70;;
76393;SDS011;65216;51.090;-115.352;2023-04-06T01:44:19;14.30;;;1.50;;
76393;SDS011;65216;51.090;-115.352;2023-04-06T01:46:49;13.40;;;1.60;;
76393;SDS011;65216;51.090;-115.352;2023-04-06T01:49:18;19.50;;;1.70;;
76393;SDS011;65216;51.090;-115.352;2023-04-06T01:51:45;13.90;;;1.60;;
76393;SDS011;65216;51.090;-115.352;2023-04-06T01:54:12;8.20;;;1.40;;
76393;SDS011;65216;51.090;-115.352;2023-04-06T01:56:39;12.80;;;1.50;;
76393;SDS011;65216;51.090;-115.352;2023-04-06T01:59:06;12.20;;;1.60;;
76393;SDS011;65216;51.090;-115.352;2023-04-06T02:01:33;14.00;;;1.30;;
76393;SDS011;65216;51.090;-115.352;2023-04-06T02:04:00;11.90;;;1.50;;
76393;SDS011;65216;51.090;-115.352;2023-04-06T02:06:27;11.80;;;1.50;;
76393;SDS011;65216;51.090;-115.352;2023-04-06T02:08:54;10.20;;;1.40;;
76393;SDS011;65216;51.090;-115.352;2023-04-06T02:11:21;10.60;;;1.40;;
76393;SDS011;65216;51.090;-115.352;2023-04-06T02:13:48;14.00;;;1.40;;
76393;SDS011;65216;51.090;-115.352;2023-04-06T02:16:15;10.00;;;1.40;;
76393;SDS011;65216;51.090;-115.352;2023-04-06T02:18:42;11.30;;;1.20;;
76393;SDS011;65216;51.090;-115.352;2023-04-06T02:21:09;14.10;;;1.50;;
76393;SDS011;65216;51.090;-115.352;2023-04-06T02:23:36;10.20;;;1.80;;
76393;SDS011;65216;51.090;-115.352;2023-04-06T02:26:06;15.90;;;1.60;;
76393;SDS011;65216;51.090;-115.352;2023-04-06T02:28:33;11.10;;;1.60;;
76393;SDS011;65216;51.090;-115.352;2023-04-06T02:31:03;12.30;;;1.50;;
76393;SDS011;65216;51.090;-115.352;2023-04-06T02:33:30;11.80;;;1.40;;
76393;SDS011;65216;51.090;-115.352;2023-04-06T02:35:56;13.10;;;1.40;;
76393;SDS011;65216;51.090;-115.352;2023-04-06T02:38:23;14.30;;;1.50;;
76393;SDS011;65216;51.090;-115.352;2023-04-06T02:40:51;8.20;;;1.30;;
76393;SDS011;65216;51.090;-115.352;2023-04-06T02:43:21;13.70;;;1.50;;
76393;SDS011;65216;51.090;-115.352;2023-04-06T02:45:48;14.10;;;1.60;;
76393;SDS011;65216;51.090;-115.352;2023-04-06T02:48:15;16.80;;;1.80;;
76393;SDS011;65216;51.090;-115.352;2023-04-06T02:50:42;9.50;;;1.40;;
76393;SDS011;65216;51.090;-115.352;2023-04-06T02:53:09;13.20;;;1.60;;
76393;SDS011;65216;51.090;-115.352;2023-04-06T02:55:36;12.30;;;1.20;;
76393;SDS011;65216;51.090;-115.352;2023-04-06T02:58:02;11.00;;;1.60;;
76393;SDS011;65216;51.090;-115.352;2023-04-06T03:00:32;11.00;;;1.40;;
76393;SDS011;65216;51.090;-115.352;2023-04-06T03:03:02;14.70;;;1.30;;
76393;SDS011;65216;51.090;-115.352;2023-04-06T03:05:31;10.30;;;1.60;;
76393;SDS011;65216;51.090;-115.352;2023-04-06T03:07:57;8.40;;;1.20;;
76393;SDS011;65216;51.090;-115.352;2023-04-06T03:10:24;14.30;;;1.50;;
76393;SDS011;65216;51.090;-115.352;2023-04-06T03:12:51;14.10;;;1.30;;
76393;SDS011;65216;51.090;-115.352;2023-04-06T03:15:19;9.70;;;1.30;;
76393;SDS011;65216;51.090;-115.352;2023-04-06T03:17:48;14.00;;;1.50;;
76393;SDS011;65216;51.090;-115.352;2023-04-06T03:20:15;12.40;;;1.20;;
76393;SDS011;65216;51.090;-115.352;2023-04-06T03:22:42;9.30;;;1.40;;
76393;SDS011;65216;51.090;-115.352;2023-04-06T03:25:09;7.60;;;1.20;;
76393;SDS011;65216;51.090;-115.352;2023-04-06T03:27:36;13.30;;;1.30;;
76393;SDS011;65216;51.090;-115.352;2023-04-06T03:30:03;12.70;;;1.80;;
76393;SDS011;65216;51.090;-115.352;2023-04-06T03:32:31;12.50;;;1.30;;
76393;SDS011;65216;51.090;-115.352;2023-04-06T03:34:58;15.00;;;1.30;;
76393;SDS011;65216;51.090;-115.352;2023-04-06T03:37:25;8.30;;;1.70;;
76393;SDS011;65216;51.090;-115.352;2023-04-06T03:39:57;7.90;;;1.00;;
76393;SDS011;65216;51.090;-115.352;2023-04-06T03:42:24;11.90;;;1.40;;
76393;SDS011;65216;51.090;-115.352;2023-04-06T03:44:52;8.20;;;1.10;;
76393;SDS011;65216;51.090;-115.352;2023-04-06T03:47:19;8.90;;;1.10;;
76393;SDS011;65216;51.090;-115.352;2023-04-06T03:49:46;4.00;;;0.90;;
76393;SDS011;65216;51.090;-115.352;2023-04-06T03:52:13;10.60;;;1.10;;
76393;SDS011;65216;51.090;-115.352;2023-04-06T03:54:40;14.30;;;1.90;;
76393;SDS011;65216;51.090;-115.352;2023-04-06T03:57:07;5.70;;;1.00;;
76393;SDS011;65216;51.090;-115.352;2023-04-06T03:59:34;4.80;;;1.00;;
76393;SDS011;65216;51.090;-115.352;2023-04-06T04:02:03;8.10;;;1.00;;
76393;SDS011;65216;51.090;-115.352;2023-04-06T04:04:31;5.40;;;0.90;;
76393;SDS011;65216;51.090;-115.352;2023-04-06T04:06:58;7.90;;;0.90;;
76393;SDS011;65216;51.090;-115.352;2023-04-06T04:09:25;4.00;;;1.00;;
76393;SDS011;65216;51.090;-115.352;2023-04-06T04:11:52;4.80;;;0.80;;
76393;SDS011;65216;51.090;-115.352;2023-04-06T04:14:18;3.30;;;0.60;;
76393;SDS011;65216;51.090;-115.352;2023-04-06T04:16:45;5.70;;;0.70;;
76393;SDS011;65216;51.090;-115.352;2023-04-06T04:19:15;2.80;;;0.60;;
76393;SDS011;65216;51.090;-115.352;2023-04-06T04:21:45;2.70;;;0.60;;
76393;SDS011;65216;51.090;-115.352;2023-04-06T04:24:13;2.40;;;0.50;;
76393;SDS011;65216;51.090;-115.352;2023-04-06T04:26:40;2.80;;;0.60;;
76393;SDS011;65216;51.090;-115.352;2023-04-06T04:29:07;2.40;;;0.60;;
76393;SDS011;65216;51.090;-115.352;2023-04-06T04:31:35;4.20;;;0.70;;
76393;SDS011;65216;51.090;-115.352;2023-04-06T04:34:02;2.20;;;0.60;;
76393;SDS011;65216;51.090;-115.352;2023-04-06T04:36:29;2.60;;;0.40;;
76393;SDS011;65216;51.090;-115.352;2023-04-06T04:38:56;3.00;;;0.60;;
76393;SDS011;65216;51.090;-115.352;2023-04-06T04:41:23;1.90;;;0.40;;
76393;SDS011;65216;51.090;-115.352;2023-04-06T04:43:50;2.60;;;0.50;;
76393;SDS011;65216;51.090;-115.352;2023-04-06T04:46:20;3.00;;;0.50;;
76393;SDS011;65216;51.090;-115.352;2023-04-06T04:48:49;1.50;;;0.40;;
76393;SDS011;65216;51.090;-115.352;2023-04-06T04:51:16;5.20;;;0.70;;
76393;SDS011;65216;51.090;-115.352;2023-04-06T04:53:45;3.00;;;0.70;;
76393;SDS011;65216;51.090;-115.352;2023-04-06T04:56:12;2.70;;;0.80;;
76393;SDS011;65216;51.090;-115.352;2023-04-06T04:58:39;2.70;;;0.60;;
76393;SDS011;65216;51.090;-115.352;2023-04-06T05:01:06;4.30;;;0.70;;
76393;SDS011;65216;51.090;-115.352;2023-04-06T05:03:33;4.80;;;0.70;;
76393;SDS011;65216;51.090;-115.352;2023-04-06T05:06:01;4.70;;;0.70;;
76393;SDS011;65216;51.090;-115.352;2023-04-06T05:08:29;4.60;;;0.70;;
76393;SDS011;65216;51.090;-115.352;2023-04-06T05:10:56;4.70;;;0.80;;
76393;SDS011;65216;51.090;-115.352;2023-04-06T05:13:23;4.40;;;0.70;;
76393;SDS011;65216;51.090;-115.352;2023-04-06T05:15:50;3.60;;;0.80;;
76393;SDS011;65216;51.090;-115.352;2023-04-06T05:18:17;2.80;;;0.50;;
76393;SDS011;65216;51.090;-115.352;2023-04-06T05:20:44;3.40;;;0.70;;
76393;SDS011;65216;51.090;-115.352;2023-04-06T05:23:11;2.00;;;0.50;;
76393;SDS011;65216;51.090;-115.352;2023-04-06T05:25:38;2.30;;;0.60;;
76393;SDS011;65216;51.090;-115.352;2023-04-06T05:28:05;2.10;;;0.60;;
76393;SDS011;65216;51.090;-115.352;2023-04-06T05:30:32;1.30;;;0.50;;
76393;SDS011;65216;51.090;-115.352;2023-04-06T05:33:01;4.10;;;0.80;;
76393;SDS011;65216;51.090;-115.352;2023-04-06T05:35:28;3.40;;;0.70;;
76393;SDS011;65216;51.090;-115.352;2023-04-06T05:37:58;2.70;;;0.60;;
76393;SDS011;65216;51.090;-115.352;2023-04-06T05:40:26;3.00;;;0.40;;
76393;SDS011;65216;51.090;-115.352;2023-04-06T05:42:52;1.90;;;0.50;;
76393;SDS011;65216;51.090;-115.352;2023-04-06T05:45:20;1.70;;;0.60;;
76393;SDS011;65216;51.090;-115.352;2023-04-06T05:47:47;1.40;;;0.60;;
76393;SDS011;65216;51.090;-115.352;2023-04-06T05:50:15;2.20;;;0.60;;
76393;SDS011;65216;51.090;-115.352;2023-04-06T05:52:42;1.10;;;0.50;;
76393;SDS011;65216;51.090;-115.352;2023-04-06T05:55:11;1.00;;;0.50;;
76393;SDS011;65216;51.090;-115.352;2023-04-06T05:57:38;4.30;;;0.60;;
76393;SDS011;65216;51.090;-115.352;2023-04-06T06:00:06;2.10;;;0.50;;
76393;SDS011;65216;51.090;-115.352;2023-04-06T06:02:35;1.40;;;0.50;;
76393;SDS011;65216;51.090;-115.352;2023-04-06T06:05:02;3.00;;;0.60;;
76393;SDS011;65216;51.090;-115.352;2023-04-06T06:07:30;0.80;;;0.30;;
76393;SDS011;65216;51.090;-115.352;2023-04-06T06:09:57;3.10;;;0.70;;
76393;SDS011;65216;51.090;-115.352;2023-04-06T06:12:24;1.20;;;0.50;;
76393;SDS011;65216;51.090;-115.352;2023-04-06T06:14:51;1.60;;;0.70;;
76393;SDS011;65216;51.090;-115.352;2023-04-06T06:17:19;2.10;;;0.50;;
76393;SDS011;65216;51.090;-115.352;2023-04-06T06:19:46;2.60;;;0.50;;
76393;SDS011;65216;51.090;-115.352;2023-04-06T06:22:13;1.50;;;0.50;;
76393;SDS011;65216;51.090;-115.352;2023-04-06T06:24:43;2.70;;;0.60;;
76393;SDS011;65216;51.090;-115.352;2023-04-06T06:27:11;2.40;;;0.50;;
76393;SDS011;65216;51.090;-115.352;2023-04-06T06:29:37;1.20;;;0.50;;
76393;SDS011;65216;51.090;-115.352;2023-04-06T06:32:05;3.40;;;0.70;;
76393;SDS011;65216;51.090;-115.352;2023-04-06T06:34:34;1.50;;;0.50;;
76393;SDS011;65216;51.090;-115.352;2023-04-06T06:37:01;1.30;;;0.40;;
76393;SDS011;65216;51.090;-115.352;2023-04-06T06:39:28;1.00;;;0.40;;
76393;SDS011;65216;51.090;-115.352;2023-04-06T06:41:55;0.90;;;0.40;;
76393;SDS011;65216;51.090;-115.352;2023-04-06T06:44:22;2.00;;;0.60;;
76393;SDS011;65216;51.090;-115.352;2023-04-06T06:46:49;2.40;;;0.30;;
76393;SDS011;65216;51.090;-115.352;2023-04-06T06:49:16;1.30;;;0.40;;
76393;SDS011;65216;51.090;-115.352;2023-04-06T06:51:43;1.70;;;0.50;;
76393;SDS011;65216;51.090;-115.352;2023-04-06T06:54:10;1.40;;;0.40;;
76393;SDS011;65216;51.090;-115.352;2023-04-06T06:56:37;2.20;;;0.60;;
76393;SDS011;65216;51.090;-115.352;2023-04-06T06:59:07;1.00;;;0.40;;
76393;SDS011;65216;51.090;-115.352;2023-04-06T07:01:34;3.10;;;0.40;;
76393;SDS011;65216;51.090;-115.352;2023-04-06T07:04:04;1.70;;;0.50;;
76393;SDS011;65216;51.090;-115.352;2023-04-06T07:06:36;3.50;;;0.30;;
76393;SDS011;65216;51.090;-115.352;2023-04-06T07:09:03;1.90;;;0.50;;
76393;SDS011;65216;51.090;-115.352;2023-04-06T07:11:31;2.50;;;0.50;;
76393;SDS011;65216;51.090;-115.352;2023-04-06T07:13:58;0.80;;;0.30;;
76393;SDS011;65216;51.090;-115.352;2023-04-06T07:16:25;1.50;;;0.40;;
76393;SDS011;65216;51.090;-115.352;2023-04-06T07:18:52;1.00;;;0.40;;
76393;SDS011;65216;51.090;-115.352;2023-04-06T07:21:19;2.20;;;0.30;;
76393;SDS011;65216;51.090;-115.352;2023-04-06T07:23:46;0.80;;;0.20;;
76393;SDS011;65216;51.090;-115.352;2023-04-06T07:26:14;0.80;;;0.30;;
76393;SDS011;65216;51.090;-115.352;2023-04-06T07:28:43;1.30;;;0.40;;
76393;SDS011;65216;51.090;-115.352;2023-04-06T07:31:10;0.90;;;0.20;;
76393;SDS011;65216;51.090;-115.352;2023-04-06T07:33:38;1.30;;;0.40;;
76393;SDS011;65216;51.090;-115.352;2023-04-06T07:36:08;0.80;;;0.20;;
76393;SDS011;65216;51.090;-115.352;2023-04-06T07:38:35;1.20;;;0.40;;
76393;SDS011;65216;51.090;-115.352;2023-04-06T07:41:05;0.60;;;0.20;;
76393;SDS011;65216;51.090;-115.352;2023-04-06T07:43:34;0.40;;;0.40;;
76393;SDS011;65216;51.090;-115.352;2023-04-06T07:46:01;0.80;;;0.30;;
76393;SDS011;65216;51.090;-115.352;2023-04-06T07:48:28;0.40;;;0.30;;
76393;SDS011;65216;51.090;-115.352;2023-04-06T07:51:06;0.70;;;0.30;;
76393;SDS011;65216;51.090;-115.352;2023-04-06T07:53:32;0.80;;;0.30;;
76393;SDS011;65216;51.090;-115.352;2023-04-06T07:55:59;0.70;;;0.30;;
76393;SDS011;65216;51.090;-115.352;2023-04-06T07:58:26;0.30;;;0.20;;
76393;SDS011;65216;51.090;-115.352;2023-04-06T08:00:54;0.70;;;0.30;;
76393;SDS011;65216;51.090;-115.352;2023-04-06T08:03:24;1.80;;;0.50;;
76393;SDS011;65216;51.090;-115.352;2023-04-06T08:05:52;0.70;;;0.40;;
76393;SDS011;65216;51.090;-115.352;2023-04-06T08:08:19;1.30;;;0.40;;
76393;SDS011;65216;51.090;-115.352;2023-04-06T08:10:48;0.60;;;0.20;;
76393;SDS011;65216;51.090;-115.352;2023-04-06T08:13:15;1.80;;;0.20;;
76393;SDS011;65216;51.090;-115.352;2023-04-06T08:15:42;0.20;;;0.10;;
76393;SDS011;65216;51.090;-115.352;2023-04-06T08:18:10;0.60;;;0.30;;
76393;SDS011;65216;51.090;-115.352;2023-04-06T08:20:37;0.20;;;0.20;;
76393;SDS011;65216;51.090;-115.352;2023-04-06T08:23:07;0.20;;;0.20;;
76393;SDS011;65216;51.090;-115.352;2023-04-06T08:25:35;0.40;;;0.30;;
76393;SDS011;65216;51.090;-115.352;2023-04-06T08:28:03;1.10;;;0.20;;
76393;SDS011;65216;51.090;-115.352;2023-04-06T08:30:31;0.10;;;0.10;;
76393;SDS011;65216;51.090;-115.352;2023-04-06T08:33:01;0.60;;;0.10;;
76393;SDS011;65216;51.090;-115.352;2023-04-06T08:35:28;0.90;;;0.20;;
76393;SDS011;65216;51.090;-115.352;2023-04-06T08:37:56;0.50;;;0.20;;
76393;SDS011;65216;51.090;-115.352;2023-04-06T08:40:26;1.10;;;0.30;;
76393;SDS011;65216;51.090;-115.352;2023-04-06T08:42:59;0.10;;;0.10;;
76393;SDS011;65216;51.090;-115.352;2023-04-06T08:45:30;0.80;;;0.30;;
76393;SDS011;65216;51.090;-115.352;2023-04-06T08:48:00;0.80;;;0.30;;
76393;SDS011;65216;51.090;-115.352;2023-04-06T08:50:33;0.40;;;0.10;;
76393;SDS011;65216;51.090;-115.352;2023-04-06T08:53:05;0.20;;;0.20;;
76393;SDS011;65216;51.090;-115.352;2023-04-06T08:55:36;0.80;;;0.20;;
76393;SDS011;65216;51.090;-115.352;2023-04-06T08:58:05;0.50;;;0.20;;
76393;SDS011;65216;51.090;-115.352;2023-04-06T09:00:38;0.80;;;0.30;;
76393;SDS011;65216;51.090;-115.352;2023-04-06T09:03:06;0.20;;;0.10;;
76393;SDS011;65216;51.090;-115.352;2023-04-06T09:05:35;1.70;;;0.20;;
76393;SDS011;65216;51.090;-115.352;2023-04-06T09:08:02;0.80;;;0.20;;
76393;SDS011;65216;51.090;-115.352;2023-04-06T09:10:29;0.20;;;0.20;;
76393;SDS011;65216;51.090;-115.352;2023-04-06T09:13:05;0.20;;;0.20;;
76393;SDS011;65216;51.090;-115.352;2023-04-06T09:15:35;0.50;;;0.10;;
76393;SDS011;65216;51.090;-115.352;2023-04-06T09:18:03;0.30;;;0.30;;
76393;SDS011;65216;51.090;-115.352;2023-04-06T09:20:31;0.40;;;0.20;;
76393;SDS011;65216;51.090;-115.352;2023-04-06T09:22:58;1.20;;;0.30;;
76393;SDS011;65216;51.090;-115.352;2023-04-06T09:25:25;0.60;;;0.40;;
76393;SDS011;65216;51.090;-115.352;2023-04-06T09:28:00;1.80;;;0.40;;
76393;SDS011;65216;51.090;-115.352;2023-04-06T09:30:32;0.40;;;0.20;;
76393;SDS011;65216;51.090;-115.352;2023-04-06T09:33:01;0.70;;;0.20;;
76393;SDS011;65216;51.090;-115.352;2023-04-06T09:35:28;0.20;;;0.10;;
76393;SDS011;65216;51.090;-115.352;2023-04-06T09:37:57;0.60;;;0.30;;
76393;SDS011;65216;51.090;-115.352;2023-04-06T09:40:24;0.20;;;0.10;;
76393;SDS011;65216;51.090;-115.352;2023-04-06T09:42:51;0.20;;;0.10;;
76393;SDS011;65216;51.090;-115.352;2023-04-06T09:45:19;0.80;;;0.20;;
76393;SDS011;65216;51.090;-115.352;2023-04-06T09:47:47;0.30;;;0.10;;
76393;SDS011;65216;51.090;-115.352;2023-04-06T09:50:16;1.00;;;0.30;;
76393;SDS011;65216;51.090;-115.352;2023-04-06T09:52:50;0.10;;;0.10;;
76393;SDS011;65216;51.090;-115.352;2023-04-06T09:55:30;0.30;;;0.20;;
76393;SDS011;65216;51.090;-115.352;2023-04-06T09:58:13;0.20;;;0.20;;
76393;SDS011;65216;51.090;-115.352;2023-04-06T10:00:58;0.60;;;0.10;;
76393;SDS011;65216;51.090;-115.352;2023-04-06T10:06:20;0.10;;;0.10;;
76393;SDS011;65216;51.090;-115.352;2023-04-06T10:08:55;0.70;;;0.20;;
76393;SDS011;65216;51.090;-115.352;2023-04-06T10:11:26;0.10;;;0.10;;
76393;SDS011;65216;51.090;-115.352;2023-04-06T10:13:53;0.70;;;0.20;;
76393;SDS011;65216;51.090;-115.352;2023-04-06T10:16:22;0.70;;;0.30;;
76393;SDS011;65216;51.090;-115.352;2023-04-06T10:18:56;0.40;;;0.20;;
76393;SDS011;65216;51.090;-115.352;2023-04-06T10:21:32;0.50;;;0.30;;
76393;SDS011;65216;51.090;-115.352;2023-04-06T10:24:01;0.50;;;0.20;;
76393;SDS011;65216;51.090;-115.352;2023-04-06T10:26:35;0.50;;;0.20;;
76393;SDS011;65216;51.090;-115.352;2023-04-06T10:29:04;0.70;;;0.30;;
76393;SDS011;65216;51.090;-115.352;2023-04-06T10:31:31;0.40;;;0.20;;
76393;SDS011;65216;51.090;-115.352;2023-04-06T10:33:59;0.20;;;0.20;;
76393;SDS011;65216;51.090;-115.352;2023-04-06T10:36:31;0.90;;;0.20;;
76393;SDS011;65216;51.090;-115.352;2023-04-06T10:39:01;0.30;;;0.20;;
76393;SDS011;65216;51.090;-115.352;2023-04-06T10:41:34;0.50;;;0.20;;
76393;SDS011;65216;51.090;-115.352;2023-04-06T10:44:06;0.20;;;0.20;;
76393;SDS011;65216;51.090;-115.352;2023-04-06T10:46:33;0.70;;;0.20;;
76393;SDS011;65216;51.090;-115.352;2023-04-06T10:49:11;0.10;;;0.10;;
76393;SDS011;65216;51.090;-115.352;2023-04-06T10:51:39;0.80;;;0.20;;
76393;SDS011;65216;51.090;-115.352;2023-04-06T10:54:08;0.30;;;0.10;;
76393;SDS011;65216;51.090;-115.352;2023-04-06T10:56:38;0.30;;;0.20;;
76393;SDS011;65216;51.090;-115.352;2023-04-06T10:59:06;0.30;;;0.30;;
76393;SDS011;65216;51.090;-115.352;2023-04-06T11:01:33;0.20;;;0.10;;
76393;SDS011;65216;51.090;-115.352;2023-04-06T11:04:00;0.40;;;0.30;;
76393;SDS011;65216;51.090;-115.352;2023-04-06T11:06:30;0.00;;;0.00;;
76393;SDS011;65216;51.090;-115.352;2023-04-06T11:08:58;0.30;;;0.20;;
76393;SDS011;65216;51.090;-115.352;2023-04-06T11:11:28;0.10;;;0.10;;
76393;SDS011;65216;51.090;-115.352;2023-04-06T11:13:57;0.60;;;0.30;;
76393;SDS011;65216;51.090;-115.352;2023-04-06T11:16:30;0.60;;;0.30;;
76393;SDS011;65216;51.090;-115.352;2023-04-06T11:19:03;0.70;;;0.20;;
76393;SDS011;65216;51.090;-115.352;2023-04-06T11:21:32;0.50;;;0.20;;
76393;SDS011;65216;51.090;-115.352;2023-04-06T11:26:39;0.30;;;0.20;;
76393;SDS011;65216;51.090;-115.352;2023-04-06T11:29:10;0.40;;;0.30;;
76393;SDS011;65216;51.090;-115.352;2023-04-06T11:31:49;0.40;;;0.30;;
76393;SDS011;65216;51.090;-115.352;2023-04-06T11:34:29;0.70;;;0.50;;
76393;SDS011;65216;51.090;-115.352;2023-04-06T11:37:01;0.20;;;0.10;;
76393;SDS011;65216;51.090;-115.352;2023-04-06T11:39:47;0.20;;;0.10;;
76393;SDS011;65216;51.090;-115.352;2023-04-06T11:42:27;0.30;;;0.10;;
76393;SDS011;65216;51.090;-115.352;2023-04-06T11:44:57;0.10;;;0.10;;
76393;SDS011;65216;51.090;-115.352;2023-04-06T11:47:42;0.70;;;0.30;;
76393;SDS011;65216;51.090;-115.352;2023-04-06T11:50:10;0.70;;;0.20;;
76393;SDS011;65216;51.090;-115.352;2023-04-06T11:52:41;0.10;;;0.10;;
76393;SDS011;65216;51.090;-115.352;2023-04-06T11:55:17;0.40;;;0.30;;
76393;SDS011;65216;51.090;-115.352;2023-04-06T11:57:45;0.40;;;0.20;;
76393;SDS011;65216;51.090;-115.352;2023-04-06T12:00:12;0.50;;;0.20;;
76393;SDS011;65216;51.090;-115.352;2023-04-06T12:02:39;0.40;;;0.20;;
76393;SDS011;65216;51.090;-115.352;2023-04-06T12:05:11;0.30;;;0.30;;
76393;SDS011;65216;51.090;-115.352;2023-04-06T12:07:38;0.20;;;0.20;;
76393;SDS011;65216;51.090;-115.352;2023-04-06T12:10:06;0.70;;;0.20;;
76393;SDS011;65216;51.090;-115.352;2023-04-06T12:12:33;0.60;;;0.10;;
76393;SDS011;65216;51.090;-115.352;2023-04-06T12:15:03;0.90;;;0.40;;
76393;SDS011;65216;51.090;-115.352;2023-04-06T12:17:31;0.30;;;0.20;;
76393;SDS011;65216;51.090;-115.352;2023-04-06T12:19:58;1.20;;;0.30;;
76393;SDS011;65216;51.090;-115.352;2023-04-06T12:22:25;0.20;;;0.20;;
76393;SDS011;65216;51.090;-115.352;2023-04-06T12:24:55;1.00;;;0.30;;
76393;SDS011;65216;51.090;-115.352;2023-04-06T12:27:24;1.00;;;0.30;;
76393;SDS011;65216;51.090;-115.352;2023-04-06T12:29:51;0.20;;;0.10;;
76393;SDS011;65216;51.090;-115.352;2023-04-06T12:32:18;0.60;;;0.20;;
76393;SDS011;65216;51.090;-115.352;2023-04-06T12:34:45;0.70;;;0.20;;
76393;SDS011;65216;51.090;-115.352;2023-04-06T12:37:15;0.70;;;0.20;;
76393;SDS011;65216;51.090;-115.352;2023-04-06T12:39:46;0.90;;;0.40;;
76393;SDS011;65216;51.090;-115.352;2023-04-06T12:42:13;0.70;;;0.30;;
76393;SDS011;65216;51.090;-115.352;2023-04-06T12:44:40;0.70;;;0.40;;
76393;SDS011;65216;51.090;-115.352;2023-04-06T12:47:10;1.00;;;0.30;;
76393;SDS011;65216;51.090;-115.352;2023-04-06T12:49:40;1.60;;;0.30;;
76393;SDS011;65216;51.090;-115.352;2023-04-06T12:52:07;1.00;;;0.30;;
76393;SDS011;65216;51.090;-115.352;2023-04-06T12:54:37;0.70;;;0.30;;
76393;SDS011;65216;51.090;-115.352;2023-04-06T12:57:03;1.80;;;0.40;;
76393;SDS011;65216;51.090;-115.352;2023-04-06T12:59:30;1.50;;;0.30;;
76393;SDS011;65216;51.090;-115.352;2023-04-06T13:02:04;0.70;;;0.30;;
76393;SDS011;65216;51.090;-115.352;2023-04-06T13:04:34;0.50;;;0.40;;
76393;SDS011;65216;51.090;-115.352;2023-04-06T13:07:01;0.80;;;0.20;;
76393;SDS011;65216;51.090;-115.352;2023-04-06T13:09:31;2.60;;;0.50;;
76393;SDS011;65216;51.090;-115.352;2023-04-06T13:11:58;1.00;;;0.40;;
76393;SDS011;65216;51.090;-115.352;2023-04-06T13:14:25;1.20;;;0.30;;
76393;SDS011;65216;51.090;-115.352;2023-04-06T13:16:52;0.80;;;0.30;;
76393;SDS011;65216;51.090;-115.352;2023-04-06T13:19:18;0.60;;;0.30;;
76393;SDS011;65216;51.090;-115.352;2023-04-06T13:21:45;1.70;;;0.40;;
76393;SDS011;65216;51.090;-115.352;2023-04-06T13:24:14;0.70;;;0.20;;
76393;SDS011;65216;51.090;-115.352;2023-04-06T13:26:45;1.10;;;0.40;;
76393;SDS011;65216;51.090;-115.352;2023-04-06T13:29:12;1.80;;;0.20;;
76393;SDS011;65216;51.090;-115.352;2023-04-06T13:31:39;2.10;;;0.40;;
76393;SDS011;65216;51.090;-115.352;2023-04-06T13:34:06;1.00;;;0.30;;
76393;SDS011;65216;51.090;-115.352;2023-04-06T13:36:35;1.50;;;0.50;;
76393;SDS011;65216;51.090;-115.352;2023-04-06T13:39:03;1.10;;;0.40;;
76393;SDS011;65216;51.090;-115.352;2023-04-06T13:41:30;1.30;;;0.30;;
76393;SDS011;65216;51.090;-115.352;2023-04-06T13:43:57;0.80;;;0.40;;
76393;SDS011;65216;51.090;-115.352;2023-04-06T13:46:27;2.40;;;0.50;;
76393;SDS011;65216;51.090;-115.352;2023-04-06T13:48:55;1.40;;;0.50;;
76393;SDS011;65216;51.090;-115.352;2023-04-06T13:51:21;0.60;;;0.30;;
76393;SDS011;65216;51.090;-115.352;2023-04-06T13:53:48;0.80;;;0.30;;
76393;SDS011;65216;51.090;-115.352;2023-04-06T13:56:18;2.50;;;0.50;;
76393;SDS011;65216;51.090;-115.352;2023-04-06T13:58:48;1.20;;;0.60;;
76393;SDS011;65216;51.090;-115.352;2023-04-06T14:01:15;0.70;;;0.40;;
76393;SDS011;65216;51.090;-115.352;2023-04-06T14:03:41;2.80;;;0.50;;
76393;SDS011;65216;51.090;-115.352;2023-04-06T14:06:13;1.30;;;0.30;;
76393;SDS011;65216;51.090;-115.352;2023-04-06T14:08:40;1.70;;;0.40;;
76393;SDS011;65216;51.090;-115.352;2023-04-06T14:11:12;3.10;;;0.50;;
76393;SDS011;65216;51.090;-115.352;2023-04-06T14:13:40;2.70;;;0.70;;
76393;SDS011;65216;51.090;-115.352;2023-04-06T14:16:09;2.00;;;0.60;;
76393;SDS011;65216;51.090;-115.352;2023-04-06T14:18:39;1.80;;;0.80;;